METAR Data
IDs: Format: Raw Decoded Include TAF

Data at: 2105 UTC 22 Sep 2020

KUBE 222055Z AUTO 18005KT 10SM BKN049 25/13 A3003 RMK AO2
KUBE 222035Z AUTO 14004KT 10SM CLR 26/12 A3005 RMK AO2
KUBE 222015Z AUTO 19007KT 10SM CLR 25/11 A3005 RMK AO2
KUBE 221955Z AUTO 12003KT 10SM CLR 25/10 A3005 RMK AO2
KUBE 221935Z AUTO 15004KT 10SM CLR 26/11 A3007 RMK AO2
KUBE 221915Z AUTO 18005KT 10SM CLR 25/10 A3007 RMK AO2
KUBE 221855Z AUTO 13005KT 10SM CLR 25/11 A3008 RMK AO2
KUBE 221835Z AUTO 20003KT 10SM CLR 25/12 A3008 RMK AO2
KUBE 221815Z AUTO 17003KT 10SM CLR 24/13 A3009 RMK AO2
KUBE 221755Z AUTO 15004KT 10SM CLR 24/13 A3010 RMK AO2
KUBE 221735Z AUTO 00000KT 10SM CLR 23/14 A3010 RMK AO2
KUBE 221715Z AUTO 15004KT 10SM CLR 23/13 A3011 RMK AO2
KUBE 221655Z AUTO 16004KT 10SM CLR 22/14 A3011 RMK AO2
KUBE 221635Z AUTO 22003KT 10SM CLR 21/13 A3012 RMK AO2
KUBE 221615Z AUTO 00000KT 10SM CLR 20/14 A3012 RMK AO2
KUBE 221555Z AUTO 00000KT 10SM CLR 20/14 A3013 RMK AO2
KUBE 221535Z AUTO 00000KT 10SM CLR 18/15 A3013 RMK AO2
KUBE 221515Z AUTO 19004KT 10SM CLR 16/16 A3013 RMK AO2
KUBE 221455Z AUTO 00000KT 10SM CLR 15/15 A3013 RMK AO2
KUBE 221435Z AUTO 22003KT 10SM CLR 15/14 A3013 RMK AO2
KUBE 221415Z AUTO 00000KT 7SM CLR 13/13 A3013 RMK AO2
KUBE 221355Z AUTO 00000KT 7SM SCT003 12/12 A3013 RMK AO2
KUBE 221335Z AUTO 00000KT 1SM BR OVC003 11/11 A3013 RMK AO2
KUBE 221315Z AUTO 00000KT 3/4SM BR OVC003 10/10 A3013 RMK AO2
KUBE 221255Z AUTO 00000KT 3SM BR BKN005 08/08 A3013 RMK AO2
KUBE 221235Z AUTO 00000KT 1/2SM FG OVC005 08/07 A3013 RMK AO2
KUBE 221215Z AUTO 00000KT 1/4SM FG BKN005 09/08 A3013 RMK AO2
KUBE 221155Z AUTO 00000KT M1/4SM FG OVC003 08/08 A3013 RMK AO2
KUBE 221135Z AUTO 00000KT 1/4SM FG OVC003 08/07 A3012 RMK AO2
KUBE 221115Z AUTO 00000KT 1/2SM FG OVC003 08/08 A3012 RMK AO2
KUBE 221055Z AUTO 00000KT 1/4SM FG OVC003 08/08 A3011 RMK AO2
KUBE 221035Z AUTO 00000KT M1/4SM FG OVC003 09/08 A3012 RMK AO2
KUBE 221015Z AUTO 00000KT M1/4SM FG OVC003 10/09 A3011 RMK AO2
KUBE 220955Z AUTO 00000KT 1/4SM FG OVC003 10/10 A3011 RMK AO2
KUBE 220935Z AUTO 00000KT 1/4SM FG OVC003 10/10 A3011 RMK AO2
KUBE 220915Z AUTO 00000KT 1/4SM FG OVC003 11/10 A3011 RMK AO2
KUBE 220855Z AUTO 00000KT 1/4SM FG OVC003 11/10 A3011 RMK AO2
KUBE 220835Z AUTO 00000KT 1/4SM FG OVC003 11/11 A3011 RMK AO2
KUBE 220815Z AUTO 00000KT 1 3/4SM BR VV007 11/11 A3011 RMK AO2 VIS 3/4V4
KUBE 220755Z AUTO 00000KT 1 1/4SM BR VV007 11/10 A3011 RMK AO2 LTG DSNT SE
KUBE 220735Z AUTO 00000KT 7SM CLR 11/10 A3011 RMK AO2
KUBE 220715Z AUTO 00000KT 5SM BR CLR 11/10 A3011 RMK AO2
KUBE 220655Z AUTO 00000KT 5SM BR CLR 10/10 A3012 RMK AO2
KUBE 220635Z AUTO 00000KT 7SM CLR 11/11 A3011 RMK AO2
KUBE 220615Z AUTO 00000KT 4SM BR CLR 11/11 A3011 RMK AO2
KUBE 220555Z AUTO 00000KT 1/2SM FG VV005 11/10 A3011 RMK AO2
KUBE 220535Z AUTO 00000KT 5SM BR CLR 12/11 A3012 RMK AO2
KUBE 220515Z AUTO 00000KT 10SM CLR 12/11 A3012 RMK AO2
KUBE 220455Z AUTO 00000KT 10SM CLR 12/11 A3012 RMK AO2 LTG DSNT SE
KUBE 220435Z AUTO 00000KT 10SM CLR 13/11 A3011 RMK AO2
KUBE 220415Z AUTO 00000KT 10SM CLR 13/11 A3011 RMK AO2
KUBE 220355Z AUTO 00000KT 10SM CLR 13/11 A3011 RMK AO2 LTG DSNT E
KUBE 220335Z AUTO 18004KT 10SM CLR 13/11 A3010 RMK AO2
KUBE 220315Z AUTO 17004KT 10SM CLR 13/11 A3010 RMK AO2
KUBE 220255Z AUTO 17005KT 10SM CLR 13/11 A3010 RMK AO2
KUBE 220235Z AUTO 18003KT 10SM CLR 14/11 A3010 RMK AO2
KUBE 220215Z AUTO 18003KT 10SM CLR 15/11 A3010 RMK AO2
KUBE 220155Z AUTO 17005KT 10SM CLR 14/11 A3010 RMK AO2
KUBE 220135Z AUTO 17003KT 10SM CLR 15/11 A3010 RMK AO2
KUBE 220115Z AUTO 17003KT 10SM CLR 15/12 A3010 RMK AO2
KUBE 220055Z AUTO 18003KT 10SM CLR 16/12 A3010 RMK AO2
KUBE 220035Z AUTO 19004KT 10SM CLR 16/11 A3009 RMK AO2
KUBE 220015Z AUTO 20004KT 10SM SCT090 17/12 A3009 RMK AO2
KUBE 212355Z AUTO 21005KT 10SM SCT100 18/12 A3009 RMK AO2
KUBE 212335Z AUTO 19003KT 10SM CLR 18/12 A3008 RMK AO2 LTG DSNT E
KUBE 212315Z AUTO 17003KT 10SM CLR 19/13 A3008 RMK AO2
KUBE 212255Z AUTO 00000KT 10SM CLR 20/13 A3008 RMK AO2 LTG DSNT E
KUBE 212235Z AUTO 00000KT 10SM TS SCT100 20/13 A3008 RMK AO2 LTG DSNT E AND SE
KUBE 212215Z AUTO 00000KT 10SM BKN100 19/13 A3008 RMK AO2 LTG DSNT E
KUBE 212155Z AUTO 00000KT 10SM OVC100 19/13 A3008 RMK AO2 LTG DSNT E
KUBE 212135Z AUTO 00000KT 10SM VCTS SCT046 SCT070 BKN110 18/13 A3008 RMK AO2 LTG DSNT NE AND E
KUBE 212115Z AUTO 19007KT 10SM -TSRA SCT030 SCT046 BKN095 18/12 A3008 RMK AO2 LTG DSNT NE THRU SW
KUBE 212055Z AUTO 20010G15KT 10SM TSRA SCT065 SCT095 SCT120 20/11 A3009 RMK AO2 LTG DSNT E THRU SW
KUBE 212035Z AUTO 19012G18KT 10SM TS SCT095 BKN120 21/10 A3009 RMK AO2 LTG DSNT E AND SW
KUBE 212015Z AUTO 20011KT 10SM VCTS SCT095 SCT120 21/10 A3008 RMK AO2 LTG DSNT S AND SW
KUBE 211955Z AUTO 19014G20KT 10SM VCTS SCT095 22/10 A3009 RMK AO2 LTG DSNT SW
KUBE 211935Z AUTO 19013KT 10SM VCTS SCT095 22/10 A3009 RMK AO2 LTG DSNT SW
KUBE 211915Z AUTO 19012KT 10SM CLR 22/10 A3010 RMK AO2
KUBE 211855Z AUTO 20015G19KT 10SM CLR 22/10 A3010 RMK AO2
KUBE 211835Z AUTO 21012KT 10SM CLR 21/10 A3011 RMK AO2
KUBE 211815Z AUTO 20012KT 10SM CLR 21/09 A3012 RMK AO2
KUBE 211755Z AUTO 19011G15KT 10SM CLR 21/10 A3013 RMK AO2 LTG DSNT SW
KUBE 211735Z AUTO 20011G20KT 10SM CLR 20/10 A3013 RMK AO2 LTG DSNT SW
KUBE 211715Z AUTO 19010G15KT 10SM CLR 19/09 A3014 RMK AO2
KUBE 211655Z AUTO 19011KT 10SM CLR 19/09 A3014 RMK AO2
KUBE 211635Z AUTO 20010G15KT 10SM CLR 19/09 A3015 RMK AO2 LTG DSNT SW
KUBE 211615Z AUTO 20011KT 10SM CLR 18/09 A3015 RMK AO2
KUBE 211555Z AUTO 19011G16KT 10SM CLR 18/08 A3016 RMK AO2 LTG DSNT SW
KUBE 211535Z AUTO 19010KT 10SM CLR 17/08 A3016 RMK AO2
KUBE 211515Z AUTO 18009KT 10SM CLR 16/08 A3017 RMK AO2
KUBE 211455Z AUTO 18011KT 10SM CLR 16/07 A3017 RMK AO2
KUBE 211435Z AUTO 18011G15KT 10SM CLR 16/07 A3017 RMK AO2
KUBE 211415Z AUTO 18008KT 10SM CLR 15/07 A3017 RMK AO2
KUBE 211355Z AUTO 17009KT 10SM CLR 14/07 A3017 RMK AO2
KUBE 211335Z AUTO 17007KT 10SM CLR 13/06 A3017 RMK AO2
KUBE 211315Z AUTO 16008KT 10SM CLR 12/06 A3017 RMK AO2
KUBE 211255Z AUTO 15006KT 10SM CLR 12/06 A3017 RMK AO2
KUBE 211235Z AUTO 16005KT 10SM CLR 11/06 A3017 RMK AO2
KUBE 211215Z AUTO 17004KT 10SM CLR 11/05 A3017 RMK AO2
KUBE 211155Z AUTO 14005KT 10SM CLR 11/05 A3017 RMK AO2
KUBE 211135Z AUTO 14007KT 090V170 10SM CLR 11/05 A3017 RMK AO2
KUBE 211115Z AUTO 17008KT 10SM SCT110 12/05 A3017 RMK AO2
KUBE 211055Z AUTO 17006KT 10SM SCT110 12/05 A3017 RMK AO2
KUBE 211035Z AUTO 16007KT 10SM CLR 12/05 A3017 RMK AO2
KUBE 211015Z AUTO 16007KT 10SM CLR 12/05 A3017 RMK AO2
KUBE 210955Z AUTO 17006KT 10SM CLR 12/05 A3017 RMK AO2
KUBE 210935Z AUTO 16006KT 10SM CLR 12/05 A3017 RMK AO2
KUBE 210915Z AUTO 17006KT 10SM CLR 12/05 A3018 RMK AO2